createdAt,value
2022-10-22T00:00:10.000Z,286.38
2022-10-22T00:01:36.000Z,286.4
2022-10-22T00:03:43.000Z,286.41
2022-10-22T00:05:09.000Z,286.41
2022-10-22T00:07:15.000Z,286.41
2022-10-22T00:08:42.000Z,286.41
2022-10-22T00:10:48.000Z,286.4
2022-10-22T00:12:15.000Z,286.37
2022-10-22T00:14:21.000Z,286.34
2022-10-22T00:15:47.000Z,286.33
2022-10-22T00:17:53.000Z,286.33
2022-10-22T00:20:45.000Z,286.31
2022-10-22T00:22:11.000Z,286.3
2022-10-22T00:24:17.000Z,286.29
2022-10-22T00:25:44.000Z,286.29
2022-10-22T00:27:50.000Z,286.26
2022-10-22T00:29:17.000Z,286.25
2022-10-22T00:31:23.000Z,286.25
2022-10-22T00:32:49.000Z,286.22
2022-10-22T00:34:55.000Z,286.22
2022-10-22T00:36:22.000Z,286.2
2022-10-22T00:38:28.000Z,286.22
2022-10-22T00:39:54.000Z,286.23
2022-10-22T00:42:00.000Z,286.23
2022-10-22T00:43:27.000Z,286.27
2022-10-22T00:45:33.000Z,286.29
2022-10-22T00:47:00.000Z,286.29
2022-10-22T00:49:06.000Z,286.29
2022-10-22T00:50:32.000Z,286.3
2022-10-22T00:52:38.000Z,286.31
2022-10-22T00:54:06.000Z,286.36
2022-10-22T00:56:12.000Z,286.36
2022-10-22T00:59:03.000Z,286.37
2022-10-22T01:00:30.000Z,286.38
2022-10-22T01:02:36.000Z,286.38
2022-10-22T01:04:03.000Z,286.38
2022-10-22T01:06:09.000Z,286.38
2022-10-22T01:07:35.000Z,286.43
2022-10-22T01:09:41.000Z,286.45
2022-10-22T01:11:08.000Z,286.44
2022-10-22T01:13:14.000Z,286.48
2022-10-22T01:14:41.000Z,286.51
2022-10-22T01:16:47.000Z,286.51
2022-10-22T01:18:13.000Z,286.52
2022-10-22T01:20:19.000Z,286.54
2022-10-22T01:21:46.000Z,286.55
2022-10-22T01:23:52.000Z,286.56
2022-10-22T01:25:19.000Z,286.58
2022-10-22T01:27:25.000Z,286.56
2022-10-22T01:28:51.000Z,286.58
2022-10-22T01:30:57.000Z,286.59
2022-10-22T01:32:24.000Z,286.59
2022-10-22T01:34:30.000Z,286.58
2022-10-22T01:37:21.000Z,286.59
2022-10-22T01:38:48.000Z,286.61
2022-10-22T01:40:54.000Z,286.63
2022-10-22T01:42:20.000Z,286.62
2022-10-22T01:44:26.000Z,286.62
2022-10-22T01:45:53.000Z,286.61
2022-10-22T01:47:59.000Z,286.58
2022-10-22T01:49:26.000Z,286.58
2022-10-22T01:51:32.000Z,286.58
2022-10-22T01:52:58.000Z,286.58
2022-10-22T01:55:04.000Z,286.59
2022-10-22T01:56:31.000Z,286.59
2022-10-22T01:58:37.000Z,286.58
2022-10-22T02:00:03.000Z,286.58
2022-10-22T02:02:09.000Z,286.56
2022-10-22T02:03:36.000Z,286.55
2022-10-22T02:05:42.000Z,286.55
2022-10-22T02:07:08.000Z,286.54
2022-10-22T02:09:15.000Z,286.52
2022-10-22T02:10:41.000Z,286.51
2022-10-22T02:12:47.000Z,286.48
2022-10-22T02:15:38.000Z,286.48
2022-10-22T02:17:05.000Z,286.48
2022-10-22T02:19:11.000Z,286.47
2022-10-22T02:20:38.000Z,286.48
2022-10-22T02:22:44.000Z,286.47
2022-10-22T02:24:10.000Z,286.47
2022-10-22T02:26:16.000Z,286.47
2022-10-22T02:27:43.000Z,286.5
2022-10-22T02:29:49.000Z,286.51
2022-10-22T02:31:15.000Z,286.56
2022-10-22T02:33:21.000Z,286.58
2022-10-22T02:34:48.000Z,286.61
2022-10-22T02:36:54.000Z,286.61
2022-10-22T02:38:20.000Z,286.68
2022-10-22T02:40:26.000Z,286.69
2022-10-22T02:41:53.000Z,286.7
2022-10-22T02:43:59.000Z,286.73
2022-10-22T02:45:26.000Z,286.76
2022-10-22T02:47:32.000Z,286.77
2022-10-22T02:48:58.000Z,286.77
2022-10-22T02:51:04.000Z,286.8
2022-10-22T02:53:55.000Z,286.83
2022-10-22T02:55:22.000Z,286.83
2022-10-22T02:57:28.000Z,286.84
2022-10-22T02:58:55.000Z,286.84
2022-10-22T03:01:01.000Z,286.84
2022-10-22T03:02:27.000Z,286.86
2022-10-22T03:04:34.000Z,286.86
2022-10-22T03:06:00.000Z,286.83
2022-10-22T03:08:06.000Z,286.82
2022-10-22T03:09:33.000Z,286.8
2022-10-22T03:11:39.000Z,286.77
2022-10-22T03:13:05.000Z,286.75
2022-10-22T03:15:11.000Z,286.73
2022-10-22T03:16:38.000Z,286.7
2022-10-22T03:18:44.000Z,286.7
2022-10-22T03:20:10.000Z,286.66
2022-10-22T03:22:17.000Z,286.65
2022-10-22T03:23:43.000Z,286.65
2022-10-22T03:25:49.000Z,286.63
2022-10-22T03:27:16.000Z,286.63
2022-10-22T03:29:22.000Z,286.62
2022-10-22T03:32:13.000Z,286.59
2022-10-22T03:33:40.000Z,286.59
2022-10-22T03:35:46.000Z,286.59
2022-10-22T03:37:12.000Z,286.59
2022-10-22T03:39:19.000Z,286.59
2022-10-22T03:40:45.000Z,286.58
2022-10-22T03:42:51.000Z,286.59
2022-10-22T03:44:18.000Z,286.58
2022-10-22T03:46:24.000Z,286.56
2022-10-22T03:47:50.000Z,286.56
2022-10-22T03:49:56.000Z,286.56
2022-10-22T03:51:23.000Z,286.54
2022-10-22T03:53:29.000Z,286.52
2022-10-22T03:54:55.000Z,286.51
2022-10-22T03:57:01.000Z,286.47
2022-10-22T03:58:28.000Z,286.47
2022-10-22T04:00:34.000Z,286.44
2022-10-22T04:02:01.000Z,286.44
2022-10-22T04:04:07.000Z,286.43
2022-10-22T04:05:33.000Z,286.41
2022-10-22T04:07:39.000Z,286.4
2022-10-22T04:10:31.000Z,286.38
2022-10-22T04:11:58.000Z,286.36
2022-10-22T04:14:04.000Z,286.37
2022-10-22T04:15:30.000Z,286.34
2022-10-22T04:17:36.000Z,286.33
2022-10-22T04:19:03.000Z,286.33
2022-10-22T04:21:09.000Z,286.31
2022-10-22T04:22:36.000Z,286.3
2022-10-22T04:24:42.000Z,286.29
2022-10-22T04:26:09.000Z,286.27
2022-10-22T04:28:15.000Z,286.26
2022-10-22T04:29:41.000Z,286.26
2022-10-22T04:31:47.000Z,286.23
2022-10-22T04:33:14.000Z,286.23
2022-10-22T04:35:20.000Z,286.22
2022-10-22T04:36:47.000Z,286.22
2022-10-22T04:38:53.000Z,286.2
2022-10-22T04:40:19.000Z,286.19
2022-10-22T04:42:25.000Z,286.19
2022-10-22T04:43:52.000Z,286.18
2022-10-22T04:45:58.000Z,286.16
2022-10-22T04:48:49.000Z,286.15
2022-10-22T04:50:16.000Z,286.13
2022-10-22T04:52:22.000Z,286.11
2022-10-22T04:53:48.000Z,286.1
2022-10-22T04:55:55.000Z,286.08
2022-10-22T04:57:21.000Z,286.05
2022-10-22T04:59:27.000Z,286.04
2022-10-22T05:00:54.000Z,286
2022-10-22T05:03:00.000Z,285.99
2022-10-22T05:04:26.000Z,285.97
2022-10-22T05:06:32.000Z,285.93
2022-10-22T05:07:59.000Z,285.91
2022-10-22T05:10:05.000Z,285.88
2022-10-22T05:11:32.000Z,285.85
2022-10-22T05:13:38.000Z,285.79
2022-10-22T05:15:04.000Z,285.78
2022-10-22T05:17:10.000Z,285.74
2022-10-22T05:18:37.000Z,285.72
2022-10-22T05:20:43.000Z,285.71
2022-10-22T05:22:09.000Z,285.7
2022-10-22T05:24:15.000Z,285.7
2022-10-22T05:27:06.000Z,285.67
2022-10-22T05:28:33.000Z,285.65
2022-10-22T05:30:39.000Z,285.63
2022-10-22T05:32:06.000Z,285.63
2022-10-22T05:34:12.000Z,285.6
2022-10-22T05:35:38.000Z,285.57
2022-10-22T05:37:44.000Z,285.57
2022-10-22T05:39:11.000Z,285.53
2022-10-22T05:41:17.000Z,285.54
2022-10-22T05:42:44.000Z,285.53
2022-10-22T05:44:50.000Z,285.52
2022-10-22T05:46:16.000Z,285.52
2022-10-22T05:48:28.000Z,285.5
2022-10-22T05:49:54.000Z,285.5
2022-10-22T05:52:01.000Z,285.5
2022-10-22T05:53:27.000Z,285.52
2022-10-22T05:55:33.000Z,285.53
2022-10-22T05:57:00.000Z,285.53
2022-10-22T05:59:06.000Z,285.52
2022-10-22T06:00:32.000Z,285.52
2022-10-22T06:02:38.000Z,285.52
2022-10-22T06:05:30.000Z,285.49
2022-10-22T06:06:57.000Z,285.46
2022-10-22T06:09:03.000Z,285.43
2022-10-22T06:10:30.000Z,285.39
2022-10-22T06:12:36.000Z,285.38
2022-10-22T06:14:02.000Z,285.36
2022-10-22T06:16:08.000Z,285.33
2022-10-22T06:17:35.000Z,285.29
2022-10-22T06:19:41.000Z,285.28
2022-10-22T06:21:08.000Z,285.27
2022-10-22T06:23:14.000Z,285.27
2022-10-22T06:24:40.000Z,285.27
2022-10-22T06:26:50.000Z,285.27
2022-10-22T06:28:17.000Z,285.28
2022-10-22T06:30:23.000Z,285.31
2022-10-22T06:31:50.000Z,285.35
2022-10-22T06:33:56.000Z,285.38
2022-10-22T06:35:22.000Z,285.4
2022-10-22T06:37:28.000Z,285.42
2022-10-22T06:38:55.000Z,285.47
2022-10-22T06:41:01.000Z,285.47
2022-10-22T06:43:52.000Z,285.49
2022-10-22T06:45:19.000Z,285.49
2022-10-22T06:47:25.000Z,285.5
2022-10-22T06:48:51.000Z,285.52
2022-10-22T06:50:57.000Z,285.52
2022-10-22T06:52:24.000Z,285.5
2022-10-22T06:54:30.000Z,285.52
2022-10-22T06:55:56.000Z,285.53
2022-10-22T06:58:02.000Z,285.57
2022-10-22T06:59:29.000Z,285.6
2022-10-22T07:01:35.000Z,285.64
2022-10-22T07:03:02.000Z,285.64
2022-10-22T07:05:08.000Z,285.65
2022-10-22T07:06:34.000Z,285.68
2022-10-22T07:08:41.000Z,285.7
2022-10-22T07:10:07.000Z,285.74
2022-10-22T07:12:13.000Z,285.77
2022-10-22T07:13:40.000Z,285.79
2022-10-22T07:15:46.000Z,285.81
2022-10-22T07:17:13.000Z,285.84
2022-10-22T07:19:19.000Z,285.86
2022-10-22T07:22:10.000Z,285.91
2022-10-22T07:23:36.000Z,285.93
2022-10-22T07:25:42.000Z,285.96
2022-10-22T07:27:09.000Z,286
2022-10-22T07:29:17.000Z,286.04
2022-10-22T07:30:44.000Z,286.05
2022-10-22T07:32:50.000Z,286.1
2022-10-22T07:34:16.000Z,286.13
2022-10-22T07:36:22.000Z,286.16
2022-10-22T07:37:49.000Z,286.19
2022-10-22T07:39:55.000Z,286.25
2022-10-22T07:41:21.000Z,286.3
2022-10-22T07:43:28.000Z,286.31
2022-10-22T07:44:54.000Z,286.34
2022-10-22T07:47:00.000Z,286.36
2022-10-22T07:48:27.000Z,286.38
2022-10-22T07:50:33.000Z,286.41
2022-10-22T07:52:00.000Z,286.43
2022-10-22T07:54:06.000Z,286.45
2022-10-22T07:55:32.000Z,286.5
2022-10-22T07:57:38.000Z,286.54
2022-10-22T08:00:30.000Z,286.63
2022-10-22T08:01:57.000Z,286.68
2022-10-22T08:04:03.000Z,286.73
2022-10-22T08:05:29.000Z,286.76
2022-10-22T08:07:35.000Z,286.77
2022-10-22T08:09:02.000Z,286.8
2022-10-22T08:11:08.000Z,286.86
2022-10-22T08:12:35.000Z,286.87
2022-10-22T08:14:41.000Z,286.93
2022-10-22T08:16:07.000Z,286.95
2022-10-22T08:18:13.000Z,287
2022-10-22T08:19:40.000Z,287.02
2022-10-22T08:21:46.000Z,287.07
2022-10-22T08:23:13.000Z,287.11
2022-10-22T08:25:19.000Z,287.16
2022-10-22T08:26:46.000Z,287.2
2022-10-22T08:28:52.000Z,287.21
2022-10-22T08:30:18.000Z,287.26
2022-10-22T08:32:24.000Z,287.34
2022-10-22T08:33:51.000Z,287.37
2022-10-22T08:35:57.000Z,287.41
2022-10-22T08:38:48.000Z,287.49
2022-10-22T08:40:15.000Z,287.5
2022-10-22T08:42:21.000Z,287.53
2022-10-22T08:43:47.000Z,287.54
2022-10-22T08:45:53.000Z,287.54
2022-10-22T08:47:20.000Z,287.57
2022-10-22T08:49:28.000Z,287.6
2022-10-22T08:50:55.000Z,287.66
2022-10-22T08:53:01.000Z,287.71
2022-10-22T08:54:27.000Z,287.75
2022-10-22T08:56:33.000Z,287.8
2022-10-22T08:58:00.000Z,287.82
2022-10-22T09:00:06.000Z,287.85
2022-10-22T09:01:32.000Z,287.82
2022-10-22T09:03:39.000Z,287.82
2022-10-22T09:05:05.000Z,287.82
2022-10-22T09:07:17.000Z,287.86
2022-10-22T09:08:43.000Z,287.89
2022-10-22T09:10:50.000Z,287.92
2022-10-22T09:12:16.000Z,287.98
2022-10-22T09:14:26.000Z,287.99
2022-10-22T09:17:17.000Z,287.93
2022-10-22T09:18:44.000Z,287.86
2022-10-22T09:20:50.000Z,287.84
2022-10-22T09:22:17.000Z,287.77
2022-10-22T09:24:23.000Z,287.74
2022-10-22T09:25:49.000Z,287.73
2022-10-22T09:27:56.000Z,287.74
2022-10-22T09:29:22.000Z,287.71
2022-10-22T09:31:28.000Z,287.71
2022-10-22T09:32:55.000Z,287.71
2022-10-22T09:35:01.000Z,287.7
2022-10-22T09:36:27.000Z,287.68
2022-10-22T09:38:34.000Z,287.71
2022-10-22T09:40:00.000Z,287.71
2022-10-22T09:42:06.000Z,287.73
2022-10-22T09:43:33.000Z,287.71
2022-10-22T09:45:39.000Z,287.71
2022-10-22T09:47:05.000Z,287.73
2022-10-22T09:49:12.000Z,287.73
2022-10-22T09:50:38.000Z,287.73
2022-10-22T09:52:44.000Z,287.73
2022-10-22T09:55:35.000Z,287.75
2022-10-22T09:57:02.000Z,287.8
2022-10-22T09:59:08.000Z,287.81
2022-10-22T10:00:34.000Z,287.85
2022-10-22T10:02:41.000Z,287.88
2022-10-22T10:04:07.000Z,287.95
2022-10-22T10:06:16.000Z,288.05
2022-10-22T10:07:42.000Z,288.1
2022-10-22T10:09:49.000Z,288.2
2022-10-22T10:11:15.000Z,288.25
2022-10-22T10:13:21.000Z,288.25
2022-10-22T10:14:48.000Z,288.31
2022-10-22T10:16:54.000Z,288.32
2022-10-22T10:18:21.000Z,288.35
2022-10-22T10:20:27.000Z,288.35
2022-10-22T10:21:54.000Z,288.36
2022-10-22T10:24:00.000Z,288.43
2022-10-22T10:25:26.000Z,288.46
2022-10-22T10:27:32.000Z,288.5
2022-10-22T10:28:59.000Z,288.53
2022-10-22T10:31:05.000Z,288.51
2022-10-22T10:33:56.000Z,288.51
2022-10-22T10:35:22.000Z,288.54
2022-10-22T10:37:29.000Z,288.58
2022-10-22T10:38:55.000Z,288.61
2022-10-22T10:41:01.000Z,288.64
2022-10-22T10:42:28.000Z,288.68
2022-10-22T10:44:34.000Z,288.72
2022-10-22T10:46:00.000Z,288.77
2022-10-22T10:48:06.000Z,288.82
2022-10-22T10:49:33.000Z,288.87
2022-10-22T10:51:39.000Z,288.9
2022-10-22T10:53:05.000Z,288.93
2022-10-22T10:55:12.000Z,288.96
2022-10-22T10:56:38.000Z,288.94
2022-10-22T10:58:45.000Z,288.93
2022-10-22T11:00:11.000Z,288.94
2022-10-22T11:02:18.000Z,288.96
2022-10-22T11:03:44.000Z,288.94
2022-10-22T11:05:50.000Z,288.94
2022-10-22T11:07:17.000Z,288.9
2022-10-22T11:09:39.000Z,288.94
2022-10-22T11:12:30.000Z,289.11
2022-10-22T11:13:57.000Z,289.28
2022-10-22T11:16:03.000Z,289.42
2022-10-22T11:17:30.000Z,289.48
2022-10-22T11:19:36.000Z,289.52
2022-10-22T11:21:18.000Z,289.51
2022-10-22T11:23:24.000Z,289.42
2022-10-22T11:24:52.000Z,289.35
2022-10-22T11:26:58.000Z,289.29
2022-10-22T11:28:24.000Z,289.23
2022-10-22T11:30:30.000Z,289.26
2022-10-22T11:31:57.000Z,289.26
2022-10-22T11:34:03.000Z,289.28
2022-10-22T11:35:47.000Z,289.26
2022-10-22T11:37:54.000Z,289.29
2022-10-22T11:39:20.000Z,289.32
2022-10-22T11:41:26.000Z,289.35
2022-10-22T11:42:53.000Z,289.4
2022-10-22T11:44:59.000Z,289.43
2022-10-22T11:46:26.000Z,289.48
2022-10-22T11:48:32.000Z,289.55
2022-10-22T11:51:23.000Z,289.51
2022-10-22T11:52:50.000Z,289.49
2022-10-22T11:54:56.000Z,289.44
2022-10-22T11:56:22.000Z,289.39
2022-10-22T11:58:29.000Z,289.37
2022-10-22T11:59:55.000Z,289.42
2022-10-22T12:02:01.000Z,289.4
2022-10-22T12:03:28.000Z,289.42
2022-10-22T12:05:34.000Z,289.43
2022-10-22T12:07:00.000Z,289.49
2022-10-22T12:09:06.000Z,289.44
2022-10-22T12:10:33.000Z,289.42
2022-10-22T12:12:39.000Z,289.4
2022-10-22T12:14:06.000Z,289.42
2022-10-22T12:16:12.000Z,289.43
2022-10-22T12:17:41.000Z,289.44
2022-10-22T12:19:47.000Z,289.51
2022-10-22T12:21:13.000Z,289.56
2022-10-22T12:23:19.000Z,289.58
2022-10-22T12:24:46.000Z,289.56
2022-10-22T12:26:52.000Z,289.63
2022-10-22T12:29:44.000Z,289.7
2022-10-22T12:31:10.000Z,289.74
2022-10-22T12:33:16.000Z,289.83
2022-10-22T12:34:43.000Z,289.93
2022-10-22T12:36:49.000Z,289.95
2022-10-22T12:38:16.000Z,289.98
2022-10-22T12:40:22.000Z,289.98
2022-10-22T12:41:48.000Z,289.94
2022-10-22T12:43:54.000Z,289.93
2022-10-22T12:45:21.000Z,289.94
2022-10-22T12:47:27.000Z,289.94
2022-10-22T12:48:53.000Z,289.9
2022-10-22T12:51:00.000Z,289.84
2022-10-22T12:52:26.000Z,289.76
2022-10-22T12:54:32.000Z,289.74
2022-10-22T12:55:59.000Z,289.74
2022-10-22T12:58:05.000Z,289.74
2022-10-22T12:59:31.000Z,289.76
2022-10-22T13:01:37.000Z,289.76
2022-10-22T13:03:04.000Z,289.74
2022-10-22T13:05:10.000Z,289.7
2022-10-22T13:08:01.000Z,289.59
2022-10-22T13:09:28.000Z,289.52
2022-10-22T13:11:36.000Z,289.48
2022-10-22T13:13:03.000Z,289.42
2022-10-22T13:15:09.000Z,289.42
2022-10-22T13:18:42.000Z,289.36
2022-10-22T13:20:08.000Z,289.35
2022-10-22T13:22:14.000Z,289.35
2022-10-22T13:23:41.000Z,289.32
2022-10-22T13:25:47.000Z,289.29
2022-10-22T13:27:13.000Z,289.25
2022-10-22T13:29:19.000Z,289.18
2022-10-22T13:30:46.000Z,289.14
2022-10-22T13:32:52.000Z,289.1
2022-10-22T13:34:19.000Z,289.03
2022-10-22T13:36:25.000Z,288.98
2022-10-22T13:37:51.000Z,288.94
2022-10-22T13:39:57.000Z,288.98
2022-10-22T13:41:24.000Z,289.07
2022-10-22T13:43:30.000Z,289.18
2022-10-22T13:46:21.000Z,289.25
2022-10-22T13:47:48.000Z,289.3
2022-10-22T13:49:54.000Z,289.36
2022-10-22T13:51:23.000Z,289.42
2022-10-22T13:53:29.000Z,289.46
2022-10-22T13:54:56.000Z,289.51
2022-10-22T13:57:02.000Z,289.52
2022-10-22T13:58:28.000Z,289.48
2022-10-22T14:00:34.000Z,289.39
2022-10-22T14:02:01.000Z,289.3
2022-10-22T14:04:07.000Z,289.35
2022-10-22T14:05:34.000Z,289.43
2022-10-22T14:07:40.000Z,289.49
2022-10-22T14:09:07.000Z,289.44
2022-10-22T14:11:13.000Z,289.39
2022-10-22T14:12:40.000Z,289.35
2022-10-22T14:14:46.000Z,289.29
2022-10-22T14:16:12.000Z,289.3
2022-10-22T14:18:18.000Z,289.32
2022-10-22T14:19:45.000Z,289.26
2022-10-22T14:21:51.000Z,289.21
2022-10-22T14:24:42.000Z,289.11
2022-10-22T14:26:09.000Z,289.07
2022-10-22T14:28:15.000Z,289.05
2022-10-22T14:29:41.000Z,289.01
2022-10-22T14:31:47.000Z,289.01
2022-10-22T14:33:14.000Z,289.08
2022-10-22T14:35:20.000Z,289.18
2022-10-22T14:36:46.000Z,289.29
2022-10-22T14:38:53.000Z,289.29
2022-10-22T14:40:19.000Z,289.23
2022-10-22T14:42:25.000Z,289.21
2022-10-22T14:43:52.000Z,289.15
2022-10-22T14:45:58.000Z,289.11
2022-10-22T14:47:24.000Z,289.1
2022-10-22T14:49:30.000Z,289.1
2022-10-22T14:50:57.000Z,289.1
2022-10-22T14:53:03.000Z,289.11
2022-10-22T14:54:29.000Z,289.1
2022-10-22T14:58:03.000Z,289.05
2022-10-22T15:00:09.000Z,289.05
2022-10-22T15:03:00.000Z,289.01
2022-10-22T15:04:30.000Z,288.96
2022-10-22T15:06:36.000Z,288.96
2022-10-22T15:08:03.000Z,288.94
2022-10-22T15:10:09.000Z,288.96
2022-10-22T15:11:35.000Z,288.97
2022-10-22T15:13:41.000Z,288.98
2022-10-22T15:15:08.000Z,288.97
2022-10-22T15:17:14.000Z,288.98
2022-10-22T15:18:41.000Z,289
2022-10-22T15:20:47.000Z,288.97
2022-10-22T15:22:13.000Z,288.96
2022-10-22T15:24:19.000Z,288.93
2022-10-22T15:25:46.000Z,288.89
2022-10-22T15:27:52.000Z,288.83
2022-10-22T15:29:25.000Z,288.79
2022-10-22T15:31:31.000Z,288.71
2022-10-22T15:32:58.000Z,288.68
2022-10-22T15:35:04.000Z,288.61
2022-10-22T15:36:31.000Z,288.54
2022-10-22T15:38:37.000Z,288.49
2022-10-22T15:41:28.000Z,288.35
2022-10-22T15:42:54.000Z,288.29
2022-10-22T15:45:00.000Z,288.2
2022-10-22T15:46:27.000Z,288.16
2022-10-22T15:48:39.000Z,288.1
2022-10-22T15:50:05.000Z,288.02
2022-10-22T15:52:11.000Z,287.98
2022-10-22T15:53:38.000Z,287.91
2022-10-22T15:55:44.000Z,287.88
2022-10-22T15:57:10.000Z,287.84
2022-10-22T15:59:17.000Z,287.8
2022-10-22T16:00:43.000Z,287.75
2022-10-22T16:02:49.000Z,287.73
2022-10-22T16:04:16.000Z,287.73
2022-10-22T16:06:22.000Z,287.71
2022-10-22T16:07:48.000Z,287.7
2022-10-22T16:09:54.000Z,287.71
2022-10-22T16:11:21.000Z,287.68
2022-10-22T16:13:27.000Z,287.68
2022-10-22T16:14:54.000Z,287.68
2022-10-22T16:17:00.000Z,287.7
2022-10-22T16:19:51.000Z,287.68
2022-10-22T16:21:18.000Z,287.67
2022-10-22T16:23:24.000Z,287.67
2022-10-22T16:24:50.000Z,287.67
2022-10-22T16:26:56.000Z,287.67
2022-10-22T16:28:23.000Z,287.66
2022-10-22T16:30:29.000Z,287.67
2022-10-22T16:31:56.000Z,287.67
2022-10-22T16:34:02.000Z,287.68
2022-10-22T16:35:28.000Z,287.68
2022-10-22T16:37:34.000Z,287.68
2022-10-22T16:39:01.000Z,287.7
2022-10-22T16:41:07.000Z,287.68
2022-10-22T16:42:34.000Z,287.68
2022-10-22T16:44:40.000Z,287.68
2022-10-22T16:46:06.000Z,287.67
2022-10-22T16:48:12.000Z,287.66
2022-10-22T16:49:39.000Z,287.63
2022-10-22T16:51:45.000Z,287.61
2022-10-22T16:53:11.000Z,287.59
2022-10-22T16:55:18.000Z,287.57
2022-10-22T16:58:09.000Z,287.54
2022-10-22T16:59:35.000Z,287.52
2022-10-22T17:01:41.000Z,287.49
2022-10-22T17:03:08.000Z,287.46
2022-10-22T17:05:14.000Z,287.42
2022-10-22T17:06:40.000Z,287.38
2022-10-22T17:08:47.000Z,287.35
2022-10-22T17:10:13.000Z,287.34
2022-10-22T17:12:20.000Z,287.31
2022-10-22T17:13:46.000Z,287.28
2022-10-22T17:15:52.000Z,287.27
2022-10-22T17:17:19.000Z,287.24
2022-10-22T17:19:25.000Z,287.21
2022-10-22T17:20:51.000Z,287.16
2022-10-22T17:22:57.000Z,287.12
2022-10-22T17:24:24.000Z,287.09
2022-10-22T17:26:30.000Z,287.07
2022-10-22T17:27:57.000Z,287.04
2022-10-22T17:30:03.000Z,287.02
2022-10-22T17:31:29.000Z,286.98
2022-10-22T17:33:35.000Z,286.95
2022-10-22T17:36:27.000Z,286.91
2022-10-22T17:37:58.000Z,286.87
2022-10-22T17:40:04.000Z,286.83
2022-10-22T17:41:30.000Z,286.8
2022-10-22T17:43:36.000Z,286.79
2022-10-22T17:45:03.000Z,286.76
2022-10-22T17:47:09.000Z,286.75
2022-10-22T17:48:35.000Z,286.7
2022-10-22T17:50:42.000Z,286.69
2022-10-22T17:52:12.000Z,286.65
2022-10-22T17:54:18.000Z,286.62
2022-10-22T17:55:44.000Z,286.58
2022-10-22T17:57:50.000Z,286.56
2022-10-22T17:59:17.000Z,286.52
2022-10-22T18:01:23.000Z,286.5
2022-10-22T18:02:50.000Z,286.44
2022-10-22T18:04:56.000Z,286.4
2022-10-22T18:06:22.000Z,286.36
2022-10-22T18:08:28.000Z,286.33
2022-10-22T18:09:55.000Z,286.29
2022-10-22T18:12:01.000Z,286.26
2022-10-22T18:14:52.000Z,286.2
2022-10-22T18:16:19.000Z,286.15
2022-10-22T18:18:25.000Z,286.1
2022-10-22T18:19:51.000Z,286.07
2022-10-22T18:21:57.000Z,286
2022-10-22T18:23:24.000Z,285.96
2022-10-22T18:25:30.000Z,285.93
2022-10-22T18:26:56.000Z,285.89
2022-10-22T18:29:03.000Z,285.85
2022-10-22T18:30:29.000Z,285.84
2022-10-22T18:32:35.000Z,285.82
2022-10-22T18:34:02.000Z,285.81
2022-10-22T18:36:08.000Z,285.78
2022-10-22T18:37:34.000Z,285.72
2022-10-22T18:39:40.000Z,285.72
2022-10-22T18:41:07.000Z,285.67
2022-10-22T18:43:13.000Z,285.61
2022-10-22T18:44:39.000Z,285.57
2022-10-22T18:46:45.000Z,285.52
2022-10-22T18:48:12.000Z,285.49
2022-10-22T18:50:18.000Z,285.47
2022-10-22T18:53:09.000Z,285.45
2022-10-22T18:54:36.000Z,285.4
2022-10-22T18:56:42.000Z,285.39
2022-10-22T18:58:08.000Z,285.35
2022-10-22T19:00:15.000Z,285.31
2022-10-22T19:01:41.000Z,285.27
2022-10-22T19:03:47.000Z,285.25
2022-10-22T19:05:14.000Z,285.17
2022-10-22T19:07:20.000Z,285.13
2022-10-22T19:08:46.000Z,285.06
2022-10-22T19:10:57.000Z,284.99
2022-10-22T19:12:23.000Z,284.96
2022-10-22T19:14:29.000Z,284.94
2022-10-22T19:15:56.000Z,284.89
2022-10-22T19:18:02.000Z,284.84
2022-10-22T19:19:28.000Z,284.82
2022-10-22T19:21:35.000Z,284.8
2022-10-22T19:23:01.000Z,284.77
2022-10-22T19:25:07.000Z,284.74
2022-10-22T19:26:38.000Z,284.7
2022-10-22T19:28:44.000Z,284.67
2022-10-22T19:31:35.000Z,284.55
2022-10-22T19:33:02.000Z,284.54
2022-10-22T19:35:08.000Z,284.51
2022-10-22T19:36:34.000Z,284.49
2022-10-22T19:38:40.000Z,284.48
2022-10-22T19:40:07.000Z,284.44
2022-10-22T19:42:13.000Z,284.41
2022-10-22T19:43:40.000Z,284.35
2022-10-22T19:45:46.000Z,284.34
2022-10-22T19:47:12.000Z,284.31
2022-10-22T19:49:18.000Z,284.31
2022-10-22T19:50:49.000Z,284.27
2022-10-22T19:52:55.000Z,284.24
2022-10-22T19:54:21.000Z,284.22
2022-10-22T19:56:28.000Z,284.19
2022-10-22T19:57:54.000Z,284.17
2022-10-22T20:00:00.000Z,284.17
2022-10-22T20:01:27.000Z,284.14
2022-10-22T20:03:33.000Z,284.14
2022-10-22T20:05:00.000Z,284.11
2022-10-22T20:07:06.000Z,284.07
2022-10-22T20:09:57.000Z,283.97
2022-10-22T20:11:24.000Z,283.91
2022-10-22T20:13:30.000Z,283.86
2022-10-22T20:14:56.000Z,283.8
2022-10-22T20:17:02.000Z,283.77
2022-10-22T20:18:29.000Z,283.73
2022-10-22T20:20:35.000Z,283.72
2022-10-22T20:22:02.000Z,283.7
2022-10-22T20:24:08.000Z,283.7
2022-10-22T20:25:34.000Z,283.68
2022-10-22T20:27:40.000Z,283.68
2022-10-22T20:29:07.000Z,283.65
2022-10-22T20:31:13.000Z,283.64
2022-10-22T20:32:40.000Z,283.62
2022-10-22T20:34:46.000Z,283.59
2022-10-22T20:36:13.000Z,283.58
2022-10-22T20:38:19.000Z,283.57
2022-10-22T20:39:46.000Z,283.5
2022-10-22T20:41:52.000Z,283.48
2022-10-22T20:43:18.000Z,283.47
2022-10-22T20:45:24.000Z,283.44
2022-10-22T20:48:15.000Z,283.4
2022-10-22T20:49:42.000Z,283.4
2022-10-22T20:51:48.000Z,283.4
2022-10-22T20:53:15.000Z,283.37
2022-10-22T20:55:22.000Z,283.34
2022-10-22T20:56:49.000Z,283.36
2022-10-22T20:58:55.000Z,283.36
2022-10-22T21:00:22.000Z,283.34
2022-10-22T21:02:28.000Z,283.32
2022-10-22T21:03:54.000Z,283.29
2022-10-22T21:06:00.000Z,283.27
2022-10-22T21:07:27.000Z,283.26
2022-10-22T21:09:33.000Z,283.25
2022-10-22T21:10:59.000Z,283.23
2022-10-22T21:13:06.000Z,283.22
2022-10-22T21:14:32.000Z,283.17
2022-10-22T21:16:38.000Z,283.16
2022-10-22T21:18:05.000Z,283.14
2022-10-22T21:21:37.000Z,283.11
2022-10-22T21:23:43.000Z,283.1
2022-10-22T21:26:34.000Z,283.11
2022-10-22T21:28:01.000Z,283.09
2022-10-22T21:30:07.000Z,283.07
2022-10-22T21:31:33.000Z,283.03
2022-10-22T21:33:39.000Z,283.02
2022-10-22T21:35:06.000Z,282.99
2022-10-22T21:37:12.000Z,282.98
2022-10-22T21:38:38.000Z,282.95
2022-10-22T21:40:44.000Z,282.95
2022-10-22T21:42:11.000Z,282.92
2022-10-22T21:44:17.000Z,282.91
2022-10-22T21:45:44.000Z,282.89
2022-10-22T21:47:50.000Z,282.86
2022-10-22T21:49:16.000Z,282.85
2022-10-22T21:51:22.000Z,282.85
2022-10-22T21:52:49.000Z,282.84
2022-10-22T21:54:55.000Z,282.84
2022-10-22T21:56:21.000Z,282.82
2022-10-22T21:58:27.000Z,282.81
2022-10-22T21:59:54.000Z,282.78
2022-10-22T22:02:00.000Z,282.77
2022-10-22T22:04:56.000Z,282.74
2022-10-22T22:06:23.000Z,282.74
2022-10-22T22:08:29.000Z,282.73
2022-10-22T22:09:55.000Z,282.71
2022-10-22T22:12:02.000Z,282.73
2022-10-22T22:13:28.000Z,282.7
2022-10-22T22:15:34.000Z,282.71
2022-10-22T22:17:01.000Z,282.7
2022-10-22T22:19:07.000Z,282.71
2022-10-22T22:20:33.000Z,282.7
2022-10-22T22:22:40.000Z,282.67
2022-10-22T22:24:07.000Z,282.66
2022-10-22T22:26:13.000Z,282.64
2022-10-22T22:27:39.000Z,282.63
2022-10-22T22:29:46.000Z,282.64
2022-10-22T22:31:12.000Z,282.63
2022-10-22T22:33:18.000Z,282.63
2022-10-22T22:34:45.000Z,282.63
2022-10-22T22:36:51.000Z,282.63
2022-10-22T22:38:18.000Z,282.61
2022-10-22T22:40:24.000Z,282.61
2022-10-22T22:43:15.000Z,282.59
2022-10-22T22:44:41.000Z,282.59
2022-10-22T22:46:47.000Z,282.57
2022-10-22T22:48:14.000Z,282.59
2022-10-22T22:50:20.000Z,282.57
2022-10-22T22:51:47.000Z,282.59
2022-10-22T22:53:53.000Z,282.57
2022-10-22T22:55:19.000Z,282.56
2022-10-22T22:57:25.000Z,282.54